Alpine Moment — VREV7 — position and weather

sailwx.info

Track history (hours):
 
Tides and Currents Weather Stations Pressure Air Temp Water Temp Dewpoint Dewpoint Depression Visibility Wind Speed Wind Dir Waves Ship Positions

Alpine Moment

Last reported at 2016-Jul-20 17:21 UTC. Time now 2016-Jul-24 04:54 UTC.
Position N 25°33' W 114°55'.

Length 183 m; draft 7.5 m.

Type: Tanker. MMSI: 477185800.

Date/timePositionNaut miles runAvg speedWind from/ knotsBaromVisibWave heightAir tempDewpointWater temp
2016-Jul-20 17:21N 25°33' W 114°55'1813.5
2016-Jul-20 16:03N 25°47' W 115°07'3614.1
2016-Jul-20 13:29N 26°21' W 115°21'1314.1
2016-Jul-20 12:33N 26°34' W 115°25'1413.9
2016-Jul-20 11:32N 26°47' W 115°30'1913.8
2016-Jul-20 10:08N 27°06' W 115°37'1014.0
2016-Jul-20 09:26N 27°15' W 115°40'1314.1
2016-Jul-20 08:31N 27°27' W 115°45'1614.0
2016-Jul-20 07:22N 27°42' W 115°52'1114.1
2016-Jul-20 06:34N 27°53' W 115°56'2613.2
2016-Jul-20 04:33N 28°18' W 116°06'1413.5
2016-Jul-20 03:33N 28°31' W 116°11'1413.2
2016-Jul-20 02:30N 28°44' W 116°16'1413.7
2016-Jul-20 01:30N 28°57' W 116°21'2713.7
2016-Jul-19 23:33N 29°22' W 116°30'1613.7
2016-Jul-19 22:22N 29°37' W 116°36'4313.6
2016-Jul-19 19:12N 30°17' W 116°55'1213.7
2016-Jul-19 18:21N 30°28' W 117°00'1113.3
2016-Jul-19 17:32N 30°38' W 117°05'1311.0
2016-Jul-19 16:20N 30°50' W 117°10'6 7.8
2016-Jul-19 15:32N 30°56' W 117°13'4 0.6
2016-Jul-19 09:05N 31°00' W 117°13'35 7.6
2016-Jul-19 04:30N 31°34' W 117°24'1111.4
2016-Jul-19 03:33N 31°44' W 117°28'1211.4
2016-Jul-19 02:29N 31°56' W 117°32'1111.9
2016-Jul-19 01:33N 32°06' W 117°37'1312.7
2016-Jul-19 00:33N 32°18' W 117°41'1212.5
2016-Jul-18 23:33N 32°30' W 117°46'1211.6
2016-Jul-18 22:33N 32°41' W 117°51'1312.9
2016-Jul-18 21:33N 32°53' W 117°56'1312.9
2016-Jul-18 20:33N 33°05' W 118°01'1111.4
2016-Jul-18 19:33N 33°16' W 118°05'1111.1
2016-Jul-18 18:33N 33°26' W 118°09'1111.1
2016-Jul-18 17:33N 33°37' W 118°12'5 5.3
2016-Jul-18 16:33N 33°42' W 118°12'3 2.5
2016-Jul-18 15:33N 33°45' W 118°13'  
2016-Jul-15 20:33N 33°46' W 118°13'4 4.4
2016-Jul-15 19:33N 33°42' W 118°11'5 4.5
2016-Jul-15 18:29N 33°38' W 118°10'1 0.9
2016-Jul-15 17:33N 33°37' W 118°10'5 5.5
2016-Jul-15 16:33N 33°32' W 118°08'6 6.4
2016-Jul-15 15:33N 33°26' W 118°06'6 6.1
2016-Jul-15 14:32N 33°20' W 118°03'9 9.6
2016-Jul-15 13:33N 33°12' W 118°10'1211.7
2016-Jul-15 12:33N 33°11' W 118°24'1211.7
2016-Jul-15 11:33N 33°10' W 118°37'1211.6
2016-Jul-15 10:30N 33°07' W 118°52'1313.3
2016-Jul-15 09:33N 33°04' W 119°06'1313.0
2016-Jul-15 08:33N 33°02' W 119°22'1313.2
2016-Jul-15 07:33N 33°04' W 119°37'9 9.0
2016-Jul-15 06:33N 33°05' W 119°48'10 9.6
2016-Jul-15 05:33N 33°08' W 119°58'1813.8
2016-Jul-15 04:16N 33°15' W 120°18'1013.8
2016-Jul-15 03:33N 33°19' W 120°29'1513.8
2016-Jul-15 02:28N 33°25' W 120°45'1213.6
2016-Jul-15 01:33N 33°30' W 120°59'1613.4
2016-Jul-15 00:20N 33°36' W 121°17'1113.8
2016-Jul-14 23:33N 33°40' W 121°29'1613.6
2016-Jul-14 22:21N 33°46' W 121°48'1513.7
2016-Jul-14 21:14N 33°52' W 122°04'1013.5
2016-Jul-14 20:32N 33°56' W 122°15'1413.8
2016-Jul-14 19:32N 34°01' W 122°30'1413.6
2016-Jul-14 18:32N 34°07' W 122°45'1513.6
2016-Jul-14 17:26N 34°12' W 123°02'1213.5
2016-Jul-14 16:33N 34°17' W 123°15'1413.2
2016-Jul-14 15:31N 34°22' W 123°31'1313.4
2016-Jul-14 14:33N 34°27' W 123°45'1313.3
2016-Jul-14 13:33N 34°32' W 123°60'1313.1
2016-Jul-14 12:33N 34°37' W 124°15'1513.5
2016-Jul-14 11:27N 34°43' W 124°31'3113.4
2016-Jul-14 09:07N 34°55' W 125°07'913.3
2016-Jul-14 08:26N 34°58' W 125°17'1213.4
2016-Jul-14 07:33N 35°02' W 125°31'7712.8
2016-Jul-14 01:31N 35°28' W 126°60'  
Track history (hours):
 
Tides and Currents Weather Stations Pressure Air Temp Water Temp Dewpoint Dewpoint Depression Visibility Wind Speed Wind Dir Waves Ship Positions

Alpine Moment

Last reported at 2016-Jul-20 17:21 UTC. Time now 2016-Jul-24 04:54 UTC.
Position N 25°33' W 114°55'.

Length 183 m; draft 7.5 m.

Type: Tanker. MMSI: 477185800.

Date/timePositionNaut miles runAvg speedWind from/ knotsBaromVisibWave heightAir tempDewpointWater temp
2016-Jul-20 17:21N 25°33' W 114°55'1813.5
2016-Jul-20 16:03N 25°47' W 115°07'3614.1
2016-Jul-20 13:29N 26°21' W 115°21'1314.1
2016-Jul-20 12:33N 26°34' W 115°25'1413.9
2016-Jul-20 11:32N 26°47' W 115°30'1913.8
2016-Jul-20 10:08N 27°06' W 115°37'1014.0
2016-Jul-20 09:26N 27°15' W 115°40'1314.1
2016-Jul-20 08:31N 27°27' W 115°45'1614.0
2016-Jul-20 07:22N 27°42' W 115°52'1114.1
2016-Jul-20 06:34N 27°53' W 115°56'2613.2
2016-Jul-20 04:33N 28°18' W 116°06'1413.5
2016-Jul-20 03:33N 28°31' W 116°11'1413.2
2016-Jul-20 02:30N 28°44' W 116°16'1413.7
2016-Jul-20 01:30N 28°57' W 116°21'2713.7
2016-Jul-19 23:33N 29°22' W 116°30'1613.7
2016-Jul-19 22:22N 29°37' W 116°36'4313.6
2016-Jul-19 19:12N 30°17' W 116°55'1213.7
2016-Jul-19 18:21N 30°28' W 117°00'1113.3
2016-Jul-19 17:32N 30°38' W 117°05'1311.0
2016-Jul-19 16:20N 30°50' W 117°10'6 7.8
2016-Jul-19 15:32N 30°56' W 117°13'4 0.6
2016-Jul-19 09:05N 31°00' W 117°13'35 7.6
2016-Jul-19 04:30N 31°34' W 117°24'1111.4
2016-Jul-19 03:33N 31°44' W 117°28'1211.4
2016-Jul-19 02:29N 31°56' W 117°32'1111.9
2016-Jul-19 01:33N 32°06' W 117°37'1312.7
2016-Jul-19 00:33N 32°18' W 117°41'1212.5
2016-Jul-18 23:33N 32°30' W 117°46'1211.6
2016-Jul-18 22:33N 32°41' W 117°51'1312.9
2016-Jul-18 21:33N 32°53' W 117°56'1312.9
2016-Jul-18 20:33N 33°05' W 118°01'1111.4
2016-Jul-18 19:33N 33°16' W 118°05'1111.1
2016-Jul-18 18:33N 33°26' W 118°09'1111.1
2016-Jul-18 17:33N 33°37' W 118°12'5 5.3
2016-Jul-18 16:33N 33°42' W 118°12'3 2.5
2016-Jul-18 15:33N 33°45' W 118°13'  
2016-Jul-15 20:33N 33°46' W 118°13'4 4.4
2016-Jul-15 19:33N 33°42' W 118°11'5 4.5
2016-Jul-15 18:29N 33°38' W 118°10'1 0.9
2016-Jul-15 17:33N 33°37' W 118°10'5 5.5
2016-Jul-15 16:33N 33°32' W 118°08'6 6.4
2016-Jul-15 15:33N 33°26' W 118°06'6 6.1
2016-Jul-15 14:32N 33°20' W 118°03'9 9.6
2016-Jul-15 13:33N 33°12' W 118°10'1211.7
2016-Jul-15 12:33N 33°11' W 118°24'1211.7
2016-Jul-15 11:33N 33°10' W 118°37'1211.6
2016-Jul-15 10:30N 33°07' W 118°52'1313.3
2016-Jul-15 09:33N 33°04' W 119°06'1313.0
2016-Jul-15 08:33N 33°02' W 119°22'1313.2
2016-Jul-15 07:33N 33°04' W 119°37'9 9.0
2016-Jul-15 06:33N 33°05' W 119°48'10 9.6
2016-Jul-15 05:33N 33°08' W 119°58'1813.8
2016-Jul-15 04:16N 33°15' W 120°18'1013.8
2016-Jul-15 03:33N 33°19' W 120°29'1513.8
2016-Jul-15 02:28N 33°25' W 120°45'1213.6
2016-Jul-15 01:33N 33°30' W 120°59'1613.4
2016-Jul-15 00:20N 33°36' W 121°17'1113.8
2016-Jul-14 23:33N 33°40' W 121°29'1613.6
2016-Jul-14 22:21N 33°46' W 121°48'1513.7
2016-Jul-14 21:14N 33°52' W 122°04'1013.5
2016-Jul-14 20:32N 33°56' W 122°15'1413.8
2016-Jul-14 19:32N 34°01' W 122°30'1413.6
2016-Jul-14 18:32N 34°07' W 122°45'1513.6
2016-Jul-14 17:26N 34°12' W 123°02'1213.5
2016-Jul-14 16:33N 34°17' W 123°15'1413.2
2016-Jul-14 15:31N 34°22' W 123°31'1313.4
2016-Jul-14 14:33N 34°27' W 123°45'1313.3
2016-Jul-14 13:33N 34°32' W 123°60'1313.1
2016-Jul-14 12:33N 34°37' W 124°15'1513.5
2016-Jul-14 11:27N 34°43' W 124°31'3113.4
2016-Jul-14 09:07N 34°55' W 125°07'913.3
2016-Jul-14 08:26N 34°58' W 125°17'1213.4
2016-Jul-14 07:33N 35°02' W 125°31'7712.8
2016-Jul-14 01:31N 35°28' W 126°60'  

Dump ship's entire track history